sensor_id;sensor_type;location;lat;lon;timestamp;temperature;humidity
37158;DHT22;23050;51.776;22.638;2024-02-04T00:01:19;6.70;99.90
37158;DHT22;23050;51.776;22.638;2024-02-04T00:03:45;6.50;99.90
37158;DHT22;23050;51.776;22.638;2024-02-04T00:06:11;6.60;99.90
37158;DHT22;23050;51.776;22.638;2024-02-04T00:08:36;6.50;99.90
37158;DHT22;23050;51.776;22.638;2024-02-04T00:11:02;6.50;99.90
37158;DHT22;23050;51.776;22.638;2024-02-04T00:13:30;6.50;99.90
37158;DHT22;23050;51.776;22.638;2024-02-04T00:15:56;6.50;99.90
37158;DHT22;23050;51.776;22.638;2024-02-04T00:18:24;6.50;99.90
37158;DHT22;23050;51.776;22.638;2024-02-04T00:20:50;6.60;99.90
37158;DHT22;23050;51.776;22.638;2024-02-04T00:23:15;6.60;99.90
37158;DHT22;23050;51.776;22.638;2024-02-04T00:25:41;6.60;99.90
37158;DHT22;23050;51.776;22.638;2024-02-04T00:28:07;6.60;99.90
37158;DHT22;23050;51.776;22.638;2024-02-04T00:30:33;6.70;99.90
37158;DHT22;23050;51.776;22.638;2024-02-04T00:32:58;6.70;99.90
37158;DHT22;23050;51.776;22.638;2024-02-04T00:35:28;6.70;99.90
37158;DHT22;23050;51.776;22.638;2024-02-04T00:37:54;6.70;99.90
37158;DHT22;23050;51.776;22.638;2024-02-04T00:40:19;6.70;99.90
37158;DHT22;23050;51.776;22.638;2024-02-04T00:42:45;6.70;99.90
37158;DHT22;23050;51.776;22.638;2024-02-04T00:45:11;6.60;99.90
37158;DHT22;23050;51.776;22.638;2024-02-04T00:47:36;6.60;99.90
37158;DHT22;23050;51.776;22.638;2024-02-04T00:50:02;6.60;99.90
37158;DHT22;23050;51.776;22.638;2024-02-04T00:52:28;6.50;99.90
37158;DHT22;23050;51.776;22.638;2024-02-04T00:54:53;6.50;99.90
37158;DHT22;23050;51.776;22.638;2024-02-04T00:57:19;6.50;99.90
37158;DHT22;23050;51.776;22.638;2024-02-04T00:59:44;6.60;99.90
37158;DHT22;23050;51.776;22.638;2024-02-04T01:02:10;6.60;99.90
37158;DHT22;23050;51.776;22.638;2024-02-04T01:04:35;6.60;99.90
37158;DHT22;23050;51.776;22.638;2024-02-04T01:07:01;6.70;99.90
37158;DHT22;23050;51.776;22.638;2024-02-04T01:09:28;6.70;99.90
37158;DHT22;23050;51.776;22.638;2024-02-04T01:11:53;6.70;99.90
37158;DHT22;23050;51.776;22.638;2024-02-04T01:14:19;6.70;99.90
37158;DHT22;23050;51.776;22.638;2024-02-04T01:16:44;6.70;99.90
37158;DHT22;23050;51.776;22.638;2024-02-04T01:19:10;6.60;99.90
37158;DHT22;23050;51.776;22.638;2024-02-04T01:21:36;6.50;99.90
37158;DHT22;23050;51.776;22.638;2024-02-04T01:24:01;6.60;99.90
37158;DHT22;23050;51.776;22.638;2024-02-04T01:26:27;6.60;99.90
37158;DHT22;23050;51.776;22.638;2024-02-04T01:28:52;6.50;99.90
37158;DHT22;23050;51.776;22.638;2024-02-04T01:31:18;6.40;99.90
37158;DHT22;23050;51.776;22.638;2024-02-04T01:33:43;6.40;99.90
37158;DHT22;23050;51.776;22.638;2024-02-04T01:36:09;6.40;99.90
37158;DHT22;23050;51.776;22.638;2024-02-04T01:38:35;6.30;99.90
37158;DHT22;23050;51.776;22.638;2024-02-04T01:41:00;6.30;99.90
37158;DHT22;23050;51.776;22.638;2024-02-04T01:43:26;6.30;99.90
37158;DHT22;23050;51.776;22.638;2024-02-04T01:45:51;6.30;99.90
37158;DHT22;23050;51.776;22.638;2024-02-04T01:48:18;6.20;99.90
37158;DHT22;23050;51.776;22.638;2024-02-04T01:50:44;6.10;99.90
37158;DHT22;23050;51.776;22.638;2024-02-04T01:53:10;6.10;99.90
37158;DHT22;23050;51.776;22.638;2024-02-04T01:55:36;6.10;99.90
37158;DHT22;23050;51.776;22.638;2024-02-04T01:58:04;6.10;99.90
37158;DHT22;23050;51.776;22.638;2024-02-04T02:00:30;6.10;99.90
37158;DHT22;23050;51.776;22.638;2024-02-04T02:02:56;6.10;99.90
37158;DHT22;23050;51.776;22.638;2024-02-04T02:05:25;6.00;99.90
37158;DHT22;23050;51.776;22.638;2024-02-04T02:07:51;6.00;99.90
37158;DHT22;23050;51.776;22.638;2024-02-04T02:10:18;5.90;99.90
37158;DHT22;23050;51.776;22.638;2024-02-04T02:12:50;5.90;99.90
37158;DHT22;23050;51.776;22.638;2024-02-04T02:15:23;5.90;99.90
37158;DHT22;23050;51.776;22.638;2024-02-04T02:23:21;5.80;99.90
37158;DHT22;23050;51.776;22.638;2024-02-04T02:25:47;5.80;99.90
37158;DHT22;23050;51.776;22.638;2024-02-04T02:28:14;5.80;99.90
37158;DHT22;23050;51.776;22.638;2024-02-04T02:30:39;5.70;99.90
37158;DHT22;23050;51.776;22.638;2024-02-04T02:33:05;5.80;99.90
37158;DHT22;23050;51.776;22.638;2024-02-04T02:35:33;5.80;99.90
37158;DHT22;23050;51.776;22.638;2024-02-04T02:42:59;5.70;99.90
37158;DHT22;23050;51.776;22.638;2024-02-04T02:45:27;5.60;99.90
37158;DHT22;23050;51.776;22.638;2024-02-04T02:47:54;5.60;99.90
37158;DHT22;23050;51.776;22.638;2024-02-04T02:50:20;5.60;99.90
37158;DHT22;23050;51.776;22.638;2024-02-04T02:52:46;5.60;99.90
37158;DHT22;23050;51.776;22.638;2024-02-04T02:55:12;5.50;99.90
37158;DHT22;23050;51.776;22.638;2024-02-04T02:57:37;5.50;99.90
37158;DHT22;23050;51.776;22.638;2024-02-04T03:00:03;5.50;99.90
37158;DHT22;23050;51.776;22.638;2024-02-04T03:02:31;5.40;99.90
37158;DHT22;23050;51.776;22.638;2024-02-04T03:04:56;5.40;99.90
37158;DHT22;23050;51.776;22.638;2024-02-04T03:07:22;5.40;99.90
37158;DHT22;23050;51.776;22.638;2024-02-04T03:09:47;5.50;99.90
37158;DHT22;23050;51.776;22.638;2024-02-04T03:12:13;5.50;99.90
37158;DHT22;23050;51.776;22.638;2024-02-04T03:14:39;5.50;99.90
37158;DHT22;23050;51.776;22.638;2024-02-04T03:17:04;5.50;99.90
37158;DHT22;23050;51.776;22.638;2024-02-04T03:19:30;5.50;99.90
37158;DHT22;23050;51.776;22.638;2024-02-04T03:21:55;5.50;99.90
37158;DHT22;23050;51.776;22.638;2024-02-04T03:24:21;5.40;99.90
37158;DHT22;23050;51.776;22.638;2024-02-04T03:26:46;5.50;99.90
37158;DHT22;23050;51.776;22.638;2024-02-04T03:29:12;5.40;99.90
37158;DHT22;23050;51.776;22.638;2024-02-04T03:31:38;5.40;99.90
37158;DHT22;23050;51.776;22.638;2024-02-04T03:34:03;5.30;99.90
37158;DHT22;23050;51.776;22.638;2024-02-04T03:36:31;5.30;99.90
37158;DHT22;23050;51.776;22.638;2024-02-04T03:38:58;5.30;99.90
37158;DHT22;23050;51.776;22.638;2024-02-04T03:41:23;5.30;99.90
37158;DHT22;23050;51.776;22.638;2024-02-04T03:43:49;5.20;99.90
37158;DHT22;23050;51.776;22.638;2024-02-04T03:46:15;5.20;99.90
37158;DHT22;23050;51.776;22.638;2024-02-04T03:48:41;5.20;99.90
37158;DHT22;23050;51.776;22.638;2024-02-04T03:51:06;5.20;99.90
37158;DHT22;23050;51.776;22.638;2024-02-04T03:53:33;5.20;99.90
37158;DHT22;23050;51.776;22.638;2024-02-04T03:55:59;5.20;99.90
37158;DHT22;23050;51.776;22.638;2024-02-04T03:58:25;5.20;99.90
37158;DHT22;23050;51.776;22.638;2024-02-04T04:00:55;5.20;99.90
37158;DHT22;23050;51.776;22.638;2024-02-04T04:03:21;5.20;99.90
37158;DHT22;23050;51.776;22.638;2024-02-04T04:05:48;5.20;99.90
37158;DHT22;23050;51.776;22.638;2024-02-04T04:08:13;5.20;99.90
37158;DHT22;23050;51.776;22.638;2024-02-04T04:10:39;5.20;99.90
37158;DHT22;23050;51.776;22.638;2024-02-04T04:13:04;5.20;99.90
37158;DHT22;23050;51.776;22.638;2024-02-04T04:15:30;5.20;99.90
37158;DHT22;23050;51.776;22.638;2024-02-04T04:17:55;5.20;99.90
37158;DHT22;23050;51.776;22.638;2024-02-04T04:20:21;5.20;99.90
37158;DHT22;23050;51.776;22.638;2024-02-04T04:22:46;5.20;99.90
37158;DHT22;23050;51.776;22.638;2024-02-04T04:25:12;5.20;99.90
37158;DHT22;23050;51.776;22.638;2024-02-04T04:27:39;5.20;99.90
37158;DHT22;23050;51.776;22.638;2024-02-04T04:30:05;5.20;99.90
37158;DHT22;23050;51.776;22.638;2024-02-04T04:32:31;5.20;99.90
37158;DHT22;23050;51.776;22.638;2024-02-04T04:34:57;5.20;99.90
37158;DHT22;23050;51.776;22.638;2024-02-04T04:37:23;5.20;99.90
37158;DHT22;23050;51.776;22.638;2024-02-04T04:39:48;5.20;99.90
37158;DHT22;23050;51.776;22.638;2024-02-04T04:42:14;5.20;99.90
37158;DHT22;23050;51.776;22.638;2024-02-04T04:44:39;5.30;99.90
37158;DHT22;23050;51.776;22.638;2024-02-04T04:47:05;5.30;99.90
37158;DHT22;23050;51.776;22.638;2024-02-04T04:49:31;5.40;99.90
37158;DHT22;23050;51.776;22.638;2024-02-04T04:51:57;5.40;99.90
37158;DHT22;23050;51.776;22.638;2024-02-04T04:54:22;5.50;99.90
37158;DHT22;23050;51.776;22.638;2024-02-04T04:56:48;5.50;99.90
37158;DHT22;23050;51.776;22.638;2024-02-04T04:59:15;5.60;99.90
37158;DHT22;23050;51.776;22.638;2024-02-04T05:01:48;5.60;99.90
37158;DHT22;23050;51.776;22.638;2024-02-04T05:04:14;5.70;99.90
37158;DHT22;23050;51.776;22.638;2024-02-04T05:06:40;5.70;99.90
37158;DHT22;23050;51.776;22.638;2024-02-04T05:09:06;5.80;99.90
37158;DHT22;23050;51.776;22.638;2024-02-04T05:11:31;5.80;99.90
37158;DHT22;23050;51.776;22.638;2024-02-04T05:13:57;5.30;99.90
37158;DHT22;23050;51.776;22.638;2024-02-04T05:16:22;4.50;99.90
37158;DHT22;23050;51.776;22.638;2024-02-04T05:18:48;4.00;99.90
37158;DHT22;23050;51.776;22.638;2024-02-04T05:21:13;3.70;99.90
37158;DHT22;23050;51.776;22.638;2024-02-04T05:23:39;3.70;99.90
37158;DHT22;23050;51.776;22.638;2024-02-04T05:26:05;3.70;99.90
37158;DHT22;23050;51.776;22.638;2024-02-04T05:28:31;3.80;99.90
37158;DHT22;23050;51.776;22.638;2024-02-04T05:30:57;3.80;99.90
37158;DHT22;23050;51.776;22.638;2024-02-04T05:33:22;3.90;99.90
37158;DHT22;23050;51.776;22.638;2024-02-04T05:35:48;3.90;99.90
37158;DHT22;23050;51.776;22.638;2024-02-04T05:38:13;3.90;99.90
37158;DHT22;23050;51.776;22.638;2024-02-04T05:40:39;3.90;99.90
37158;DHT22;23050;51.776;22.638;2024-02-04T05:43:06;3.90;99.90
37158;DHT22;23050;51.776;22.638;2024-02-04T05:45:36;3.90;99.90
37158;DHT22;23050;51.776;22.638;2024-02-04T05:48:02;3.90;99.90
37158;DHT22;23050;51.776;22.638;2024-02-04T05:50:28;3.90;99.90
37158;DHT22;23050;51.776;22.638;2024-02-04T05:52:53;3.90;99.90
37158;DHT22;23050;51.776;22.638;2024-02-04T05:55:19;3.90;99.90
37158;DHT22;23050;51.776;22.638;2024-02-04T05:57:44;3.80;99.90
37158;DHT22;23050;51.776;22.638;2024-02-04T06:00:10;3.80;99.90
37158;DHT22;23050;51.776;22.638;2024-02-04T06:02:36;3.80;99.90
37158;DHT22;23050;51.776;22.638;2024-02-04T06:05:02;3.80;99.90
37158;DHT22;23050;51.776;22.638;2024-02-04T06:07:28;3.80;99.90
37158;DHT22;23050;51.776;22.638;2024-02-04T06:09:54;3.80;99.90
37158;DHT22;23050;51.776;22.638;2024-02-04T06:12:21;3.80;99.90
37158;DHT22;23050;51.776;22.638;2024-02-04T06:14:47;3.80;99.90
37158;DHT22;23050;51.776;22.638;2024-02-04T06:17:13;3.90;99.90
37158;DHT22;23050;51.776;22.638;2024-02-04T06:19:38;4.00;99.90
37158;DHT22;23050;51.776;22.638;2024-02-04T06:22:04;4.00;99.90
37158;DHT22;23050;51.776;22.638;2024-02-04T06:24:29;4.00;99.90
37158;DHT22;23050;51.776;22.638;2024-02-04T06:26:55;4.10;99.90
37158;DHT22;23050;51.776;22.638;2024-02-04T06:29:21;4.10;99.90
37158;DHT22;23050;51.776;22.638;2024-02-04T06:31:47;4.20;99.90
37158;DHT22;23050;51.776;22.638;2024-02-04T06:34:12;4.20;99.90
37158;DHT22;23050;51.776;22.638;2024-02-04T06:36:42;4.20;99.90
37158;DHT22;23050;51.776;22.638;2024-02-04T06:39:07;4.20;99.90
37158;DHT22;23050;51.776;22.638;2024-02-04T06:41:34;4.20;99.90
37158;DHT22;23050;51.776;22.638;2024-02-04T06:44:00;4.10;99.90
37158;DHT22;23050;51.776;22.638;2024-02-04T06:46:26;4.00;99.90
37158;DHT22;23050;51.776;22.638;2024-02-04T06:48:52;3.90;99.90
37158;DHT22;23050;51.776;22.638;2024-02-04T06:51:19;3.80;99.90
37158;DHT22;23050;51.776;22.638;2024-02-04T06:53:44;3.80;99.90
37158;DHT22;23050;51.776;22.638;2024-02-04T06:56:10;3.70;99.90
37158;DHT22;23050;51.776;22.638;2024-02-04T06:58:41;3.70;99.90
37158;DHT22;23050;51.776;22.638;2024-02-04T07:01:07;3.70;99.90
37158;DHT22;23050;51.776;22.638;2024-02-04T07:03:32;3.70;99.90
37158;DHT22;23050;51.776;22.638;2024-02-04T07:05:59;3.70;99.90
37158;DHT22;23050;51.776;22.638;2024-02-04T07:08:25;3.80;99.90
37158;DHT22;23050;51.776;22.638;2024-02-04T07:10:51;3.90;99.90
37158;DHT22;23050;51.776;22.638;2024-02-04T07:13:17;3.90;99.90
37158;DHT22;23050;51.776;22.638;2024-02-04T07:15:43;4.00;99.90
37158;DHT22;23050;51.776;22.638;2024-02-04T07:18:09;4.10;99.90
37158;DHT22;23050;51.776;22.638;2024-02-04T07:20:34;4.20;99.90
37158;DHT22;23050;51.776;22.638;2024-02-04T07:23:03;4.30;99.90
37158;DHT22;23050;51.776;22.638;2024-02-04T07:25:29;4.50;99.90
37158;DHT22;23050;51.776;22.638;2024-02-04T07:27:55;4.70;99.90
37158;DHT22;23050;51.776;22.638;2024-02-04T07:30:23;4.90;99.90
37158;DHT22;23050;51.776;22.638;2024-02-04T07:32:48;5.00;99.90
37158;DHT22;23050;51.776;22.638;2024-02-04T07:35:14;5.00;99.90
37158;DHT22;23050;51.776;22.638;2024-02-04T07:37:39;5.10;99.90
37158;DHT22;23050;51.776;22.638;2024-02-04T07:40:06;5.30;99.90
37158;DHT22;23050;51.776;22.638;2024-02-04T07:42:32;5.50;99.90
37158;DHT22;23050;51.776;22.638;2024-02-04T07:44:58;5.50;99.90
37158;DHT22;23050;51.776;22.638;2024-02-04T07:47:23;5.40;99.90
37158;DHT22;23050;51.776;22.638;2024-02-04T07:49:49;5.30;99.90
37158;DHT22;23050;51.776;22.638;2024-02-04T07:52:15;5.30;99.90
37158;DHT22;23050;51.776;22.638;2024-02-04T07:54:41;5.60;99.90
37158;DHT22;23050;51.776;22.638;2024-02-04T07:57:06;6.10;99.90
37158;DHT22;23050;51.776;22.638;2024-02-04T07:59:32;6.50;99.90
37158;DHT22;23050;51.776;22.638;2024-02-04T08:01:58;6.70;99.90
37158;DHT22;23050;51.776;22.638;2024-02-04T08:04:23;6.70;99.90
37158;DHT22;23050;51.776;22.638;2024-02-04T08:06:49;6.70;99.90
37158;DHT22;23050;51.776;22.638;2024-02-04T08:09:15;6.40;99.90
37158;DHT22;23050;51.776;22.638;2024-02-04T08:11:40;6.40;99.90
37158;DHT22;23050;51.776;22.638;2024-02-04T08:14:06;6.10;99.90
37158;DHT22;23050;51.776;22.638;2024-02-04T08:16:32;6.00;99.90
37158;DHT22;23050;51.776;22.638;2024-02-04T08:18:58;6.10;99.90
37158;DHT22;23050;51.776;22.638;2024-02-04T08:21:23;6.10;99.90
37158;DHT22;23050;51.776;22.638;2024-02-04T08:23:49;6.10;99.90
37158;DHT22;23050;51.776;22.638;2024-02-04T08:26:15;6.10;99.90
37158;DHT22;23050;51.776;22.638;2024-02-04T08:28:41;6.20;99.90
37158;DHT22;23050;51.776;22.638;2024-02-04T08:31:06;6.10;99.90
37158;DHT22;23050;51.776;22.638;2024-02-04T08:33:32;6.20;99.90
37158;DHT22;23050;51.776;22.638;2024-02-04T08:35:57;6.60;99.90
37158;DHT22;23050;51.776;22.638;2024-02-04T08:38:23;6.80;99.90
37158;DHT22;23050;51.776;22.638;2024-02-04T08:40:49;7.00;99.90
37158;DHT22;23050;51.776;22.638;2024-02-04T08:43:14;7.30;99.90
37158;DHT22;23050;51.776;22.638;2024-02-04T08:45:41;7.40;99.90
37158;DHT22;23050;51.776;22.638;2024-02-04T08:48:07;7.30;99.90
37158;DHT22;23050;51.776;22.638;2024-02-04T08:50:33;7.10;99.90
37158;DHT22;23050;51.776;22.638;2024-02-04T08:52:59;7.10;99.90
37158;DHT22;23050;51.776;22.638;2024-02-04T08:55:25;7.10;99.90
37158;DHT22;23050;51.776;22.638;2024-02-04T08:57:50;7.10;99.90
37158;DHT22;23050;51.776;22.638;2024-02-04T09:00:17;7.10;99.90
37158;DHT22;23050;51.776;22.638;2024-02-04T09:02:43;7.40;99.90
37158;DHT22;23050;51.776;22.638;2024-02-04T09:05:08;7.70;99.90
37158;DHT22;23050;51.776;22.638;2024-02-04T09:07:34;8.00;99.90
37158;DHT22;23050;51.776;22.638;2024-02-04T09:09:59;7.80;99.90
37158;DHT22;23050;51.776;22.638;2024-02-04T09:12:26;7.60;99.90
37158;DHT22;23050;51.776;22.638;2024-02-04T09:14:52;7.30;99.90
37158;DHT22;23050;51.776;22.638;2024-02-04T09:17:17;7.00;99.90
37158;DHT22;23050;51.776;22.638;2024-02-04T09:19:43;6.80;99.90
37158;DHT22;23050;51.776;22.638;2024-02-04T09:22:08;6.60;99.90
37158;DHT22;23050;51.776;22.638;2024-02-04T09:24:34;6.50;99.90
37158;DHT22;23050;51.776;22.638;2024-02-04T09:27:00;6.50;99.90
37158;DHT22;23050;51.776;22.638;2024-02-04T09:29:25;6.40;99.90
37158;DHT22;23050;51.776;22.638;2024-02-04T09:31:51;6.40;99.90
37158;DHT22;23050;51.776;22.638;2024-02-04T09:34:18;6.50;99.90
37158;DHT22;23050;51.776;22.638;2024-02-04T09:36:44;6.50;99.90
37158;DHT22;23050;51.776;22.638;2024-02-04T09:39:10;6.70;99.90
37158;DHT22;23050;51.776;22.638;2024-02-04T09:41:35;6.90;99.90
37158;DHT22;23050;51.776;22.638;2024-02-04T09:44:02;6.90;99.90
37158;DHT22;23050;51.776;22.638;2024-02-04T09:46:29;7.00;99.90
37158;DHT22;23050;51.776;22.638;2024-02-04T09:48:55;7.00;99.90
37158;DHT22;23050;51.776;22.638;2024-02-04T09:51:21;6.90;99.90
37158;DHT22;23050;51.776;22.638;2024-02-04T09:53:53;7.00;99.90
37158;DHT22;23050;51.776;22.638;2024-02-04T09:56:24;6.90;99.90
37158;DHT22;23050;51.776;22.638;2024-02-04T09:58:51;6.90;99.90
37158;DHT22;23050;51.776;22.638;2024-02-04T10:01:19;6.90;99.90
37158;DHT22;23050;51.776;22.638;2024-02-04T10:03:46;6.70;99.90
37158;DHT22;23050;51.776;22.638;2024-02-04T10:06:12;6.90;99.90
37158;DHT22;23050;51.776;22.638;2024-02-04T10:08:38;6.80;99.90
37158;DHT22;23050;51.776;22.638;2024-02-04T10:11:03;6.70;99.90
37158;DHT22;23050;51.776;22.638;2024-02-04T10:13:29;6.80;99.90
37158;DHT22;23050;51.776;22.638;2024-02-04T10:15:55;6.80;99.90
37158;DHT22;23050;51.776;22.638;2024-02-04T10:18:21;6.80;99.90
37158;DHT22;23050;51.776;22.638;2024-02-04T10:20:47;6.80;99.90
37158;DHT22;23050;51.776;22.638;2024-02-04T10:23:12;6.80;99.90
37158;DHT22;23050;51.776;22.638;2024-02-04T10:25:38;6.80;99.90
37158;DHT22;23050;51.776;22.638;2024-02-04T10:28:04;6.80;99.90
37158;DHT22;23050;51.776;22.638;2024-02-04T10:30:30;7.00;99.90
37158;DHT22;23050;51.776;22.638;2024-02-04T10:32:56;7.00;99.90
37158;DHT22;23050;51.776;22.638;2024-02-04T10:35:22;6.90;99.90
37158;DHT22;23050;51.776;22.638;2024-02-04T10:37:51;6.90;99.90
37158;DHT22;23050;51.776;22.638;2024-02-04T10:40:17;7.00;99.90
37158;DHT22;23050;51.776;22.638;2024-02-04T10:42:43;7.10;99.90
37158;DHT22;23050;51.776;22.638;2024-02-04T10:45:09;7.00;99.90
37158;DHT22;23050;51.776;22.638;2024-02-04T10:47:37;6.80;99.90
37158;DHT22;23050;51.776;22.638;2024-02-04T10:50:04;6.70;99.90
37158;DHT22;23050;51.776;22.638;2024-02-04T10:52:37;6.70;99.90
37158;DHT22;23050;51.776;22.638;2024-02-04T10:55:07;6.70;99.90
37158;DHT22;23050;51.776;22.638;2024-02-04T10:57:33;6.70;99.90
37158;DHT22;23050;51.776;22.638;2024-02-04T11:00:00;6.70;99.90
37158;DHT22;23050;51.776;22.638;2024-02-04T11:02:30;6.60;99.90
37158;DHT22;23050;51.776;22.638;2024-02-04T11:04:57;6.60;99.90
37158;DHT22;23050;51.776;22.638;2024-02-04T11:07:24;6.60;99.90
37158;DHT22;23050;51.776;22.638;2024-02-04T11:09:51;6.60;99.90
37158;DHT22;23050;51.776;22.638;2024-02-04T11:12:19;6.70;99.90
37158;DHT22;23050;51.776;22.638;2024-02-04T11:14:50;6.70;99.90
37158;DHT22;23050;51.776;22.638;2024-02-04T11:20:23;6.70;97.70
37158;DHT22;23050;51.776;22.638;2024-02-04T11:25:44;6.70;97.10
37158;DHT22;23050;51.776;22.638;2024-02-04T11:28:11;6.60;97.10
37158;DHT22;23050;51.776;22.638;2024-02-04T11:30:37;6.60;96.80
37158;DHT22;23050;51.776;22.638;2024-02-04T11:33:05;6.50;97.70
37158;DHT22;23050;51.776;22.638;2024-02-04T11:35:34;6.60;98.20
37158;DHT22;23050;51.776;22.638;2024-02-04T11:38:00;6.60;98.40
37158;DHT22;23050;51.776;22.638;2024-02-04T11:40:37;6.70;97.40
37158;DHT22;23050;51.776;22.638;2024-02-04T11:43:06;6.60;96.20
37158;DHT22;23050;51.776;22.638;2024-02-04T11:45:32;6.60;96.80
37158;DHT22;23050;51.776;22.638;2024-02-04T11:48:01;6.70;97.20
37158;DHT22;23050;51.776;22.638;2024-02-04T11:50:28;6.70;95.90
37158;DHT22;23050;51.776;22.638;2024-02-04T11:55:34;6.70;95.40
37158;DHT22;23050;51.776;22.638;2024-02-04T11:58:00;6.60;94.90
37158;DHT22;23050;51.776;22.638;2024-02-04T12:00:26;6.60;95.70
37158;DHT22;23050;51.776;22.638;2024-02-04T12:03:07;6.60;95.90
37158;DHT22;23050;51.776;22.638;2024-02-04T12:05:37;6.60;96.20
37158;DHT22;23050;51.776;22.638;2024-02-04T12:08:06;6.70;96.70
37158;DHT22;23050;51.776;22.638;2024-02-04T12:10:33;6.80;96.10
37158;DHT22;23050;51.776;22.638;2024-02-04T12:13:02;6.70;95.20
37158;DHT22;23050;51.776;22.638;2024-02-04T12:15:28;6.80;94.90
37158;DHT22;23050;51.776;22.638;2024-02-04T12:17:55;6.80;93.70
37158;DHT22;23050;51.776;22.638;2024-02-04T12:20:21;6.80;93.20
37158;DHT22;23050;51.776;22.638;2024-02-04T12:22:47;6.80;94.40
37158;DHT22;23050;51.776;22.638;2024-02-04T12:25:14;6.70;93.60
37158;DHT22;23050;51.776;22.638;2024-02-04T12:27:40;6.70;94.80
37158;DHT22;23050;51.776;22.638;2024-02-04T12:30:06;6.70;95.80
37158;DHT22;23050;51.776;22.638;2024-02-04T12:32:32;6.70;96.50
37158;DHT22;23050;51.776;22.638;2024-02-04T12:34:58;6.60;96.10
37158;DHT22;23050;51.776;22.638;2024-02-04T12:37:23;6.60;98.10
37158;DHT22;23050;51.776;22.638;2024-02-04T12:39:50;6.40;99.90
37158;DHT22;23050;51.776;22.638;2024-02-04T12:42:16;6.40;99.90
37158;DHT22;23050;51.776;22.638;2024-02-04T12:44:47;6.30;99.90
37158;DHT22;23050;51.776;22.638;2024-02-04T12:47:13;6.20;99.90
37158;DHT22;23050;51.776;22.638;2024-02-04T12:49:41;6.10;99.90
37158;DHT22;23050;51.776;22.638;2024-02-04T12:52:07;6.00;99.90
37158;DHT22;23050;51.776;22.638;2024-02-04T12:54:45;5.90;99.90
37158;DHT22;23050;51.776;22.638;2024-02-04T12:57:21;5.80;99.90
37158;DHT22;23050;51.776;22.638;2024-02-04T12:59:47;5.70;99.90
37158;DHT22;23050;51.776;22.638;2024-02-04T13:02:14;5.60;99.90
37158;DHT22;23050;51.776;22.638;2024-02-04T13:04:41;5.60;99.90
37158;DHT22;23050;51.776;22.638;2024-02-04T13:07:12;5.60;99.90
37158;DHT22;23050;51.776;22.638;2024-02-04T13:09:42;5.60;99.90
37158;DHT22;23050;51.776;22.638;2024-02-04T13:12:09;5.60;99.90
37158;DHT22;23050;51.776;22.638;2024-02-04T13:14:38;5.60;99.90
37158;DHT22;23050;51.776;22.638;2024-02-04T13:17:05;5.60;99.90
37158;DHT22;23050;51.776;22.638;2024-02-04T13:19:37;5.50;99.90
37158;DHT22;23050;51.776;22.638;2024-02-04T13:22:04;5.40;99.90
37158;DHT22;23050;51.776;22.638;2024-02-04T13:24:31;5.40;99.90
37158;DHT22;23050;51.776;22.638;2024-02-04T13:26:57;5.40;99.90
37158;DHT22;23050;51.776;22.638;2024-02-04T13:29:23;5.40;99.90
37158;DHT22;23050;51.776;22.638;2024-02-04T13:31:48;5.30;99.90
37158;DHT22;23050;51.776;22.638;2024-02-04T13:34:16;5.30;99.90
37158;DHT22;23050;51.776;22.638;2024-02-04T13:36:43;5.20;99.90
37158;DHT22;23050;51.776;22.638;2024-02-04T13:39:09;5.20;99.90
37158;DHT22;23050;51.776;22.638;2024-02-04T13:41:35;5.20;99.90
37158;DHT22;23050;51.776;22.638;2024-02-04T13:44:01;5.20;99.90
37158;DHT22;23050;51.776;22.638;2024-02-04T13:46:27;5.30;99.90
37158;DHT22;23050;51.776;22.638;2024-02-04T13:48:53;5.30;99.90
37158;DHT22;23050;51.776;22.638;2024-02-04T13:51:19;5.30;99.90
37158;DHT22;23050;51.776;22.638;2024-02-04T13:53:44;5.30;99.90
37158;DHT22;23050;51.776;22.638;2024-02-04T13:56:10;5.40;99.90
37158;DHT22;23050;51.776;22.638;2024-02-04T13:58:37;5.30;99.90
37158;DHT22;23050;51.776;22.638;2024-02-04T14:01:02;5.30;99.90
37158;DHT22;23050;51.776;22.638;2024-02-04T14:03:28;5.30;99.90
37158;DHT22;23050;51.776;22.638;2024-02-04T14:05:54;5.30;99.90
37158;DHT22;23050;51.776;22.638;2024-02-04T14:08:21;5.40;99.90
37158;DHT22;23050;51.776;22.638;2024-02-04T14:10:46;5.30;99.90
37158;DHT22;23050;51.776;22.638;2024-02-04T14:13:12;5.40;99.90
37158;DHT22;23050;51.776;22.638;2024-02-04T14:15:38;5.40;99.90
37158;DHT22;23050;51.776;22.638;2024-02-04T14:18:04;5.40;99.90
37158;DHT22;23050;51.776;22.638;2024-02-04T14:20:30;5.40;99.90
37158;DHT22;23050;51.776;22.638;2024-02-04T14:22:55;5.40;99.90
37158;DHT22;23050;51.776;22.638;2024-02-04T14:25:22;5.40;99.90
37158;DHT22;23050;51.776;22.638;2024-02-04T14:27:52;5.40;99.90
37158;DHT22;23050;51.776;22.638;2024-02-04T14:30:17;5.40;99.90
37158;DHT22;23050;51.776;22.638;2024-02-04T14:32:43;5.50;99.90
37158;DHT22;23050;51.776;22.638;2024-02-04T14:35:09;5.50;99.90
37158;DHT22;23050;51.776;22.638;2024-02-04T14:37:35;5.40;99.90
37158;DHT22;23050;51.776;22.638;2024-02-04T14:40:06;5.50;99.90
37158;DHT22;23050;51.776;22.638;2024-02-04T14:42:32;5.40;99.90
37158;DHT22;23050;51.776;22.638;2024-02-04T14:44:58;5.40;99.90
37158;DHT22;23050;51.776;22.638;2024-02-04T14:47:27;5.40;99.90
37158;DHT22;23050;51.776;22.638;2024-02-04T14:49:53;5.30;99.90
37158;DHT22;23050;51.776;22.638;2024-02-04T14:52:19;5.30;99.90
37158;DHT22;23050;51.776;22.638;2024-02-04T14:54:45;5.30;99.90
37158;DHT22;23050;51.776;22.638;2024-02-04T14:57:11;5.30;99.90
37158;DHT22;23050;51.776;22.638;2024-02-04T14:59:38;5.20;99.90
37158;DHT22;23050;51.776;22.638;2024-02-04T15:02:04;5.20;99.90
37158;DHT22;23050;51.776;22.638;2024-02-04T15:04:33;5.20;99.90
37158;DHT22;23050;51.776;22.638;2024-02-04T15:06:59;5.20;99.90
37158;DHT22;23050;51.776;22.638;2024-02-04T15:09:31;5.20;99.90
37158;DHT22;23050;51.776;22.638;2024-02-04T15:11:57;5.20;99.90
37158;DHT22;23050;51.776;22.638;2024-02-04T15:14:23;5.20;99.90
37158;DHT22;23050;51.776;22.638;2024-02-04T15:16:50;5.20;99.90
37158;DHT22;23050;51.776;22.638;2024-02-04T15:19:16;5.30;99.90
37158;DHT22;23050;51.776;22.638;2024-02-04T15:21:42;5.30;99.90
37158;DHT22;23050;51.776;22.638;2024-02-04T15:24:08;5.30;99.90
37158;DHT22;23050;51.776;22.638;2024-02-04T15:26:35;5.30;99.90
37158;DHT22;23050;51.776;22.638;2024-02-04T15:29:10;5.30;99.90
37158;DHT22;23050;51.776;22.638;2024-02-04T15:31:38;5.30;99.90
37158;DHT22;23050;51.776;22.638;2024-02-04T15:34:04;5.30;99.90
37158;DHT22;23050;51.776;22.638;2024-02-04T15:36:31;5.40;99.90
37158;DHT22;23050;51.776;22.638;2024-02-04T15:38:58;5.40;99.90
37158;DHT22;23050;51.776;22.638;2024-02-04T15:41:23;5.30;99.90
37158;DHT22;23050;51.776;22.638;2024-02-04T15:43:49;5.40;99.90